Weather observations for the past three days for
FORT ORD/FRITZSCHE
Imperial (Metric)
Date Time (pdt) Wind (mph) Vis. (mi.) Weather Sky Cond. Temperature (ºF) Relative Humidity Wind Chill (°F) Heat Index (°F) Pressure Precipitation (in)
Air Dwpt 6 hour altimeter (in) sea level (mb) 1 hr 3 hr 6 hr
Max. Min.
03 06:35 Calm 7.00 Overcast OVC002 50 48.2 94% 30 0.0
03 06:15 W 3 7.00 Overcast OVC002 50 48.2 94% 30 0.0
03 05:55 W 7 5.00 Fog/Mist OVC002 50 50 100% 48 30 0.0
03 05:35 W 7 2.50 Fog/Mist OVC002 50 48.2 94% 48 30 0.0
03 05:15 W 7 5.00 Fog/Mist OVC004 50 48.2 94% 48 30 0.0
03 04:55 W 5 10.00 Overcast OVC004 50 48.2 94% 49 30.01 0.0
03 04:35 SW 3 10.00 Overcast OVC006 50 46.4 88% 30.01 0.0
03 04:15 S 3 10.00 Overcast OVC006 50 46.4 88% 30.01 0.0
03 03:55 Calm 10.00 Overcast OVC006 50 46.4 88% 30.02 0.0
03 03:35 Calm 10.00 Mostly Cloudy BKN008 50 48.2 94% 30.02 0.0
03 03:15 Calm 10.00 Fair CLR 48.2 46.4 94% 30.02 0.0
03 02:55 W 3 10.00 Fair CLR 50 46.4 88% 30.02 0.0
03 02:35 SW 5 10.00 Fair CLR 50 46.4 88% 49 30.02 0.0
03 02:15 SW 5 10.00 Fair CLR 51.8 48.2 88% 30.02 0.0
03 01:55 W 7 10.00 Fair CLR 51.8 48.2 88% 30.03 0.0
03 01:35 SW 6 10.00 Fair CLR 51.8 50 94% 30.02 0.0
03 01:15 SW 7 10.00 Fair CLR 51.8 50 94% 30.03 0.0
03 00:55 SW 7 10.00 Fair CLR 51.8 50 94% 30.03 0.0
03 00:35 W 9 10.00 Partly Cloudy SCT008 51.8 50 94% 30.03 0.0
03 00:15 SW 6 10.00 Partly Cloudy SCT008 53.6 50 88% 30.03 0.0
02 23:55 SW 10 10.00 Mostly Cloudy BKN010 53.6 50 88% 30.03 0.0
02 23:35 W 8 10.00 Mostly Cloudy BKN010 53.6 50 88% 30.03 0.0
02 23:15 SW 7 10.00 Overcast OVC010 53.6 50 88% 30.03 0.0
02 22:55 SW 6 10.00 Mostly Cloudy BKN010 51.8 48.2 88% 30.04 0.0
02 22:35 SW 6 10.00 Partly Cloudy SCT010 51.8 48.2 88% 30.04 0.0
02 22:15 SW 6 10.00 Partly Cloudy SCT010 51.8 50 94% 30.04 0.0
02 21:55 SW 6 10.00 Fair CLR 51.8 50 94% 30.04 0.0
02 21:35 SW 6 10.00 Fair CLR 51.8 50 94% 30.04 0.0
02 21:15 SW 6 10.00 Fair CLR 51.8 50 94% 30.04 0.0
02 20:55 W 7 10.00 Partly Cloudy SCT006 53.6 50 88% 30.04 0.0
02 20:35 W 7 10.00 Partly Cloudy SCT006 53.6 50 88% 30.03 0.0
02 20:15 W 6 10.00 Partly Cloudy SCT006 53.6 50 88% 30.03 0.0
02 19:55 W 8 10.00 Mostly Cloudy BKN008 53.6 50 88% 30.03 0.0
02 19:35 W 8 10.00 Mostly Cloudy BKN008 53.6 50 88% 30.03 0.0
02 19:15 W 10 10.00 Mostly Cloudy BKN008 BKN011 55.4 51.8 88% 30.03 0.0
02 18:55 W 10 10.00 Partly Cloudy SCT008 55.4 50 82% 30.03 0.0
02 18:35 W 12 10.00 Mostly Cloudy BKN008 59 51.8 77% 30.03 0.0
02 18:15 W 10 10.00 Mostly Cloudy BKN008 59 51.8 77% 30.03 0.0
02 17:55 W 13 G 17 10.00 Fair CLR 60.8 50 68% 30.03 0.0
02 17:35 W 14 G 18 10.00 Fair CLR 60.8 50 68% 30.03 0.0
02 17:15 W 13 G 20 10.00 Fair CLR 60.8 51.8 72% 30.03 0.0
02 16:55 W 15 10.00 Fair CLR 60.8 51.8 72% 30.04 0.0
02 16:35 W 15 10.00 Partly Cloudy SCT013 62.6 51.8 68% 30.04 0.0
02 16:15 W 15 10.00 Partly Cloudy SCT013 62.6 51.8 68% 30.04 0.0
02 15:55 W 13 G 18 10.00 Fair CLR 62.6 51.8 68% 30.05 0.0
02 15:35 NW 10 10.00 Fair CLR 64.4 51.8 64% 30.05 0.0
02 15:15 W 10 G 16 10.00 Fair CLR 64.4 51.8 64% 30.05 0.0
02 14:55 W 13 10.00 Fair CLR 64.4 51.8 64% 30.06 0.0
02 14:35 W 18 10.00 Fair CLR 64.4 51.8 64% 30.06 0.0
02 14:15 NW 13 G 20 10.00 Fair CLR 64.4 50 60% 30.07 0.0
02 13:55 NW 16 G 21 10.00 Fair CLR 66.2 50 56% 30.07 0.0
02 13:35 W 14 G 22 10.00 Fair CLR 64.4 50 60% 30.07 0.0
02 13:15 W 12 G 17 10.00 Fair CLR 64.4 50 60% 30.07 0.0
02 12:55 NW 9 10.00 Fair CLR 66.2 50 56% 30.07 0.0
02 12:35 W 9 10.00 Fair CLR 64.4 50 60% 30.07 0.0
02 12:15 W 8 10.00 Fair CLR 66.2 50 56% 30.07 0.0
02 11:55 W 12 10.00 Fair CLR 64.4 50 60% 30.07 0.0
02 11:35 W 8 10.00 Fair CLR 64.4 48.2 56% 30.07 0.0
02 11:15 W 9 G 17 10.00 Partly Cloudy SCT028 66.2 48.2 52% 30.07 0.0
02 10:55 NW 5 10.00 Partly Cloudy SCT028 64.4 48.2 56% 30.07 0.0
02 10:35 Calm 10.00 Partly Cloudy SCT028 62.6 46.4 56% 30.08 0.0
02 10:15 SE 3 10.00 Fair CLR 60.8 46.4 59% 30.08 0.0
02 09:55 E 5 10.00 Fair CLR 59 44.6 59% 30.08 0.0
02 09:35 E 6 10.00 Fair CLR 59 44.6 59% 30.08 0.0
02 09:15 E 6 10.00 Fair CLR 55.4 44.6 67% 30.07 0.0
02 08:55 SE 8 10.00 Partly Cloudy SCT075 53.6 44.6 72% 30.07 0.0
02 08:35 E 8 10.00 Partly Cloudy SCT075 51.8 44.6 77% 30.07 0.0
02 08:15 E 5 10.00 Fair CLR 50 42.8 76% 49 30.07 0.0
02 07:55 E 3 10.00 Fair CLR 48.2 42.8 82% 30.07 0.0
02 07:35 Calm 10.00 Fair CLR 46.4 42.8 87% 30.06 0.0
02 07:15 Calm 5.00 Fog/Mist CLR 44.6 41 87% 30.05 0.0
02 06:55 Calm 2.50 Fog/Mist CLR 44.6 41 87% 30.05 0.0
02 06:35 SE 5 7.00 Fair CLR 44.6 41 87% 43 30.05 0.0
02 06:15 E 3 7.00 Fair CLR 44.6 41 87% 30.04 0.0
02 05:55 Calm 10.00 Fair CLR 44.6 41 87% 30.04 0.0
02 05:35 Calm 10.00 Fair CLR 44.6 41 87% 30.04 0.0
02 04:55 Calm 10.00 Fair CLR 44.6 41 87% 30.05 0.0
02 04:35 Calm 10.00 Fair CLR 44.6 42.8 93% 30.05 0.0
02 04:15 SE 3 10.00 Fair CLR 44.6 41 87% 30.05 0.0
02 03:55 Calm 10.00 Fair CLR 44.6 41 87% 30.05 0.0
02 03:35 Calm 10.00 Partly Cloudy SCT026 44.6 41 87% 30.05 0.0
02 03:15 Calm 10.00 Partly Cloudy SCT026 46.4 41 82% 30.05 0.0
02 02:55 Calm 10.00 Fair CLR 46.4 42.8 87% 30.05 0.0
02 02:35 Calm 10.00 Fair CLR 46.4 42.8 87% 30.04 0.0
02 02:15 Calm 10.00 Fair CLR 46.4 42.8 87% 30.04 0.0
02 01:55 Calm 10.00 Fair CLR 46.4 44.6 93% 30.04 0.0
02 01:35 NE 3 10.00 Fair CLR 46.4 42.8 87% 30.04 0.0
02 01:15 Calm 10.00 Fair CLR 46.4 42.8 87% 30.04 0.0
02 00:55 Calm 10.00 Fair CLR 48.2 42.8 82% 30.04 0.0
02 00:35 Calm 10.00 Fair CLR 50 42.8 76% 30.04 0.0
01 23:55 SW 3 10.00 Fair CLR 50 42.8 76% 30.04 0.0
01 23:35 S 3 10.00 Fair CLR 50 44.6 82% 30.04 0.0
01 23:15 SW 3 10.00 Fair CLR 50 44.6 82% 30.05 0.0
01 22:35 Calm 1.00 Sky Obscured with Haze VV007 50 44.6 82% 30.06 0.0
01 22:15 S 3 10.00 Fair CLR 50 44.6 82% 30.06 0.0
01 21:55 S 3 10.00 Fair CLR 50 44.6 82% 30.06 0.0
01 21:35 SE 3 10.00 Fair CLR 50 44.6 82% 30.06 0.0
01 21:15 Calm 10.00 Fair CLR 51.8 46.4 82% 30.05 0.0
01 20:55 W 7 10.00 Fair CLR 53.6 46.4 77% 30.05 0.0
01 20:35 W 7 10.00 Fair CLR 53.6 46.4 77% 30.04 0.0
01 20:15 W 7 10.00 Fair CLR 53.6 46.4 77% 30.04 0.0
01 19:55 W 9 10.00 Fair CLR 53.6 46.4 77% 30.03 0.0
01 19:35 W 9 10.00 Fair CLR 55.4 46.4 72% 30.02 0.0
01 19:15 W 12 10.00 Fair CLR 55.4 46.4 72% 30.02 0.0
01 18:55 W 14 10.00 Fair CLR 59 46.4 63% 30.02 0.0
01 18:35 W 14 10.00 Fair CLR 59 46.4 63% 30.02 0.0
01 18:15 W 14 10.00 Fair CLR 59 46.4 63% 30.02 0.0
01 17:55 W 14 G 20 10.00 Fair CLR 59 46.4 63% 30.02 0.0
01 17:35 W 17 G 22 10.00 Fair CLR 60.8 46.4 59% 30.02 0.0
01 17:15 W 15 G 23 10.00 Fair CLR 60.8 46.4 59% 30.02 0.0
01 16:55 W 20 10.00 Fair CLR 60.8 44.6 55% 30.02 0.0
01 16:35 W 17 G 24 10.00 Fair CLR 62.6 44.6 52% 30.02 0.0
01 16:15 W 15 G 21 10.00 Fair CLR 62.6 44.6 52% 30.02 0.0
01 15:55 W 16 G 21 10.00 Fair CLR 62.6 44.6 52% 30.02 0.0
01 15:15 W 16 10.00 Fair CLR 62.6 44.6 52% 30.03 0.0
01 14:55 W 15 10.00 Fair CLR 64.4 42.8 46% 30.03 0.0
01 14:35 W 13 G 18 10.00 Fair CLR 64.4 42.8 46% 30.03 0.0
01 14:15 W 14 G 18 10.00 Fair CLR 64.4 41 43% 30.03 0.0
01 13:55 W 12 G 16 10.00 Fair CLR 64.4 42.8 46% 30.04 0.0
01 13:35 W 13 G 17 10.00 Fair CLR 64.4 41 43% 30.04 0.0
01 13:15 W 9 G 17 10.00 Fair CLR 62.6 41 45% 30.05 0.0
01 12:55 W 9 G 21 10.00 Fair CLR 62.6 42.8 49% 30.05 0.0
01 12:35 W 12 G 16 10.00 Fair CLR 62.6 42.8 49% 30.05 0.0
01 12:15 SW 7 G 16 10.00 Fair CLR 62.6 41 45% 30.05 0.0
01 11:55 Calm 10.00 Fair CLR 62.6 41 45% 30.05 0.0
01 11:35 W 6 10.00 Fair CLR 60.8 41 48% 30.05 0.0
01 11:15 N 7 10.00 Fair CLR 62.6 41 45% 30.05 0.0
01 10:35 W 5 10.00 Partly Cloudy SCT041 60.8 41 48% 30.04 0.0
01 10:15 W 8 10.00 Mostly Cloudy BKN041 59 41 51% 30.04 0.0
01 09:55 Calm 10.00 Mostly Cloudy BKN039 59 41 51% 30.04 0.0
01 09:35 W 7 10.00 Overcast OVC039 59 41 51% 30.04 0.0
01 09:15 SW 5 10.00 Overcast OVC037 59 41 51% 30.04 0.0
01 08:55 SW 6 10.00 Overcast OVC037 57.2 41 55% 30.02 0.0
01 08:35 Calm 10.00 Overcast OVC037 55.4 41 59% 30.02 0.0
01 08:15 Calm 10.00 Overcast OVC037 55.4 42.8 63% 30.02 0.0
01 07:55 SW 5 10.00 Overcast OVC037 53.6 42.8 67% 30.02 0.0
01 07:35 SW 3 10.00 Overcast OVC037 53.6 42.8 67% 30.01 0.0
01 07:15 SW 5 10.00 Overcast OVC037 53.6 42.8 67% 30 0.0
01 06:55 SW 5 10.00 Overcast OVC033 53.6 42.8 67% 30 0.0
01 06:35 SW 5 10.00 Overcast OVC035 51.8 42.8 72% 30 0.0
01 06:15 SW 3 10.00 Overcast OVC035 51.8 42.8 72% 29.99 0.0
01 05:55 S 3 10.00 Overcast OVC035 51.8 42.8 72% 29.99 0.0
01 05:35 S 3 10.00 Overcast OVC033 51.8 42.8 72% 29.99 0.0
01 05:15 SW 3 10.00 Overcast OVC033 53.6 42.8 67% 29.98 0.0
01 04:55 Calm 10.00 Overcast OVC033 53.6 42.8 67% 29.99 0.0
01 04:35 W 7 10.00 Overcast OVC031 53.6 42.8 67% 29.99 0.0
01 04:15 W 7 10.00 Overcast OVC031 53.6 42.8 67% 29.99 0.0
01 03:55 W 5 10.00 Overcast OVC031 51.8 46.4 82% 29.98 0.0
01 03:35 W 6 10.00 Overcast OVC029 53.6 46.4 77% 29.97 0.0
01 03:15 W 5 10.00 Overcast OVC029 53.6 44.6 72% 29.98 0.0
01 02:55 W 6 10.00 Overcast OVC029 53.6 44.6 72% 29.97 0.0
01 02:35 Calm 10.00 Overcast OVC029 53.6 44.6 72% 29.97 0.0
01 02:15 SW 3 10.00 Overcast OVC029 53.6 44.6 72% 29.97 0.0
01 01:35 SW 5 10.00 Overcast OVC029 53.6 44.6 72% 29.97 0.0
01 01:15 W 6 10.00 Overcast OVC029 53.6 44.6 72% 29.98 0.0
01 00:55 W 6 10.00 Overcast OVC029 53.6 46.4 77% 29.98 0.0
01 00:35 W 6 10.00 Overcast OVC027 53.6 46.4 77% 29.98 0.0
01 00:15 W 7 10.00 Overcast OVC027 53.6 46.4 77% 29.98 0.0
31 23:35 W 7 10.00 Overcast OVC025 53.6 46.4 77% 29.98 0.0
31 23:15 W 8 10.00 Overcast OVC025 53.6 46.4 77% 29.98 0.0
31 22:55 W 8 10.00 Overcast OVC025 51.8 50 94% 29.98 0.0
31 22:35 W 9 10.00 Overcast SCT010 OVC025 51.8 50 94% 29.98 0.0
31 22:15 W 8 10.00 Mostly Cloudy BKN010 BKN022 BKN027 51.8 48.2 88% 29.99 0.0
31 21:55 W 12 10.00 Mostly Cloudy BKN010 51.8 48.2 88% 29.98 0.0
31 21:35 W 9 10.00 Partly Cloudy SCT023 51.8 46.4 82% 29.97 0.0
31 21:15 SW 8 10.00 Partly Cloudy SCT023 51.8 46.4 82% 29.97 0.0
31 20:55 W 8 10.00 Fair CLR 51.8 46.4 82% 29.96 0.0
31 20:35 W 9 10.00 Fair CLR 51.8 46.4 82% 29.96 0.0
31 20:15 W 8 10.00 Fair CLR 53.6 46.4 77% 29.95 0.0
31 19:55 W 8 10.00 Fair CLR 53.6 46.4 77% 29.94 0.0
31 19:35 W 10 10.00 Fair CLR 53.6 46.4 77% 29.95 0.0
31 19:15 W 10 10.00 Fair CLR 53.6 46.4 77% 29.95 0.0
31 18:55 W 12 10.00 Fair CLR 55.4 46.4 72% 29.95 0.0
31 18:35 W 13 10.00 Fair CLR 55.4 46.4 72% 29.95 0.0
31 18:15 W 15 G 20 10.00 Fair CLR 57.2 46.4 67% 29.95 0.0
31 17:55 W 17 G 23 10.00 Fair CLR 57.2 46.4 67% 29.95 0.0
31 17:35 W 14 10.00 Fair CLR 59 46.4 63% 29.95 0.0
31 17:15 W 15 10.00 Fair CLR 59 46.4 63% 29.95 0.0
31 16:35 W 16 G 22 10.00 Fair CLR 59 46.4 63% 29.95 0.0
31 16:15 W 16 G 21 10.00 Fair CLR 60.8 46.4 59% 29.95 0.0
31 15:55 W 10 G 18 10.00 Fair CLR 60.8 46.4 59% 29.95 0.0
31 15:35 W 14 G 18 10.00 Fair CLR 60.8 46.4 59% 29.96 0.0
31 15:15 W 9 10.00 Fair CLR 60.8 46.4 59% 29.96 0.0
31 14:55 W 12 G 17 10.00 Fair CLR 62.6 46.4 56% 29.97 0.0
31 14:35 W 13 G 18 10.00 Partly Cloudy SCT023 60.8 44.6 55% 29.97 0.0
31 14:15 W 14 G 17 10.00 Partly Cloudy SCT023 60.8 44.6 55% 29.98 0.0
31 13:55 W 12 G 17 10.00 Partly Cloudy SCT023 60.8 44.6 55% 29.98 0.0
31 13:35 NW 9 G 20 10.00 Partly Cloudy SCT023 60.8 44.6 55% 29.98 0.0
31 13:15 NW 12 G 17 10.00 Overcast OVC023 60.8 44.6 55% 29.98 0.0
31 12:55 NW 7 10.00 Overcast OVC023 59 44.6 59% 29.99 0.0
31 12:35 W 9 10.00 Overcast OVC023 59 44.6 59% 30 0.0
31 12:15 W 6 10.00 Overcast OVC021 59 44.6 59% 30 0.0
31 11:55 W 3 10.00 Overcast OVC021 57.2 44.6 63% 30 0.0
31 11:35 W 5 10.00 Overcast OVC021 57.2 44.6 63% 30 0.0
31 11:15 SW 5 10.00 Overcast OVC019 55.4 44.6 67% 30 0.0
31 10:55 W 3 10.00 Overcast OVC019 55.4 44.6 67% 30 0.0
31 10:35 NW 6 10.00 Overcast OVC019 53.6 44.6 72% 30 0.0
31 10:15 W 7 10.00 Overcast OVC019 53.6 44.6 72% 30 0.0
31 09:55 NW 6 10.00 Overcast OVC019 53.6 44.6 72% 29.99 0.0
31 09:35 W 7 10.00 Overcast OVC019 53.6 44.6 72% 29.99 0.0
31 09:15 W 8 10.00 Overcast OVC021 53.6 44.6 72% 29.99 0.0
31 08:55 W 5 10.00 Overcast OVC021 53.6 44.6 72% 29.98 0.0
31 08:35 W 6 10.00 Overcast OVC021 53.6 44.6 72% 29.98 0.0
31 08:15 SW 6 10.00 Overcast OVC019 51.8 44.6 77% 29.98 0.0
31 07:55 S 5 10.00 Overcast OVC019 51.8 44.6 77% 29.97 0.0
31 07:35 S 3 10.00 Overcast OVC019 51.8 44.6 77% 29.97 0.0
31 07:15 SW 5 10.00 Overcast OVC017 51.8 44.6 77% 29.96 0.0
Date Time (pdt) Wind (mph) Vis. (mi.) Weather Sky Cond. Air Dwpt Max. Min. Relative Humidity Wind Chill (°F) Heat Index (°F) altimeter (in) sea level (mb) 1 hr 3 hr 6 hr
6 hour
Temperature (ºF) Pressure Precipitation (in)